Saint Peterburg, Russia

11:33 AM MSK on August 29, 2015 (GMT +0300)
Pulkovo | | Change Station
CLOSE
Current Station
Airport
Location: St. Petersburg,
Elevation: 75 ft
Nearby Weather Stations

Elev 75 ft 59.80 °N, 30.27 °E | Updated 33 minutes ago

Scattered Clouds
Scattered Clouds
61 °F
Feels Like 61 °F
N
16
Wind Variable Wind from WSW

Today
High -- | Low -- °F
--% Chance of Precip.
Yesterday
High -- | Low -- °F
Precip. -- in
5:46 AM 8:12 PM
Full, 100% visible
Pressure 29.80 in
Visibility 6.2 miles
Clouds Scattered Clouds 2600 ft
Dew Point 55 °F
Humidity 82%
Rainfall 0.00 in
Snow Depth Not available.
UV 3 out of 12
Pollen Not available.
Air Quality Not available.
Flu Activity Not available.
METAR ULLI 290800Z 24007MPS 9999 SCT026CB 16/13 Q1009 R88/190060 NOSIG
Pressure 29.80 in
Visibility 6.2 miles
Clouds Scattered Clouds 2600 ft
Dew Point 55 °F
Humidity 82%
Rainfall 0.00 in
Snow Depth Not available.
UV 3 out of 12
Pollen Not available.
Air Quality Not available.
Flu Activity Not available.
METAR ULLI 290800Z 24007MPS 9999 SCT026CB 16/13 Q1009 R88/190060 NOSIG

10-Day Weather Forecast

×

Almanac

Astronomy

Aug. 29, 2015 Rise Set
Actual Time
Civil Twilight
Nautical Twilight
Astronomical Twilight
Moon
Length of Visible Light
Length of Day
Tomorrow will be .
, % of the Moon is Illuminated

Today's Extremes

Country Highs Country Lows

Community

WunderPhotos

Upload Photos

1,850,634 photos uploaded!

WunderBlogs® & News

Nearby

Air Quality

  Air Quality AQ Index Pollutant
Not available.

Snow Depth

Station Depth Elevation

Earthquake Activity

City Distance Mag. Time & Date
Minimum magnitude displayed is 2.5.

Coastal Water Temperatures

Place Temperature

Stations

Nearby Weather Stations

Station Location Temp. Windchill Dew Point Humidity Wind Precip. Elev Updated Type